Time;durP1;ratioP1;P1;durP2;ratioP2;P2;SDS_P1;SDS_P2;PMS_P1;PMS_P2;Temp;Humidity;BMP_temperature;BMP_pressure;BME280_temperature;BME280_humidity;BME280_pressure;Samples;Min_cycle;Max_cycle;Signal;HPM_P1;HPM_P2
2022/06/29 00:02:17;;;;;;;7.22;4.78;;;;;;;17.24;74.84;101480.25;5117751;28;20111;-59
2022/06/29 00:04:42;;;;;;;7.78;4.45;;;;;;;17.25;74.51;101479.31;5117526;28;20024;-59
2022/06/29 00:07:07;;;;;;;7.35;4.40;;;;;;;17.21;75.04;101482.97;5117492;28;20057;-60
2022/06/29 00:09:32;;;;;;;5.28;4.13;;;;;;;17.16;74.30;101477.81;5117663;28;20115;-59
2022/06/29 00:11:58;;;;;;;8.23;4.40;;;;;;;17.15;75.27;101481.38;5117150;28;20447;-59
2022/06/29 00:14:23;;;;;;;8.65;5.07;;;;;;;16.99;75.29;101465.09;5117453;28;20048;-59
2022/06/29 00:16:49;;;;;;;9.07;5.97;;;;;;;17.09;75.05;101471.00;5117602;28;20041;-59
2022/06/29 00:19:14;;;;;;;10.20;5.57;;;;;;;16.97;75.21;101476.66;5117038;28;20032;-60
2022/06/29 00:21:39;;;;;;;8.35;5.15;;;;;;;16.94;76.36;101469.69;5116375;28;20374;-59
2022/06/29 00:24:05;;;;;;;13.63;5.93;;;;;;;16.95;76.11;101468.78;5117626;28;20081;-59
2022/06/29 00:26:30;;;;;;;7.20;4.68;;;;;;;16.86;75.88;101468.16;5117317;28;20350;-59
2022/06/29 00:28:55;;;;;;;5.88;4.38;;;;;;;16.82;75.98;101466.50;5117333;28;20118;-58
2022/06/29 00:31:21;;;;;;;8.13;5.07;;;;;;;16.76;76.85;101467.59;5116900;28;20155;-58
2022/06/29 00:33:46;;;;;;;7.82;5.07;;;;;;;16.77;77.90;101465.81;5117021;28;20034;-59
2022/06/29 00:36:11;;;;;;;7.55;4.50;;;;;;;16.75;77.38;101465.84;5116624;28;20047;-59
2022/06/29 00:38:37;;;;;;;5.88;4.10;;;;;;;16.69;77.96;101460.72;5116696;28;20031;-59
2022/06/29 00:41:02;;;;;;;6.95;4.60;;;;;;;16.65;78.61;101467.00;5116837;28;20119;-60
2022/06/29 00:43:27;;;;;;;7.65;4.63;;;;;;;16.64;77.42;101465.25;5116827;28;20042;-58
2022/06/29 00:45:53;;;;;;;9.75;6.03;;;;;;;16.53;78.39;101457.63;5116918;28;20114;-58
2022/06/29 00:48:18;;;;;;;9.88;5.53;;;;;;;16.45;78.88;101461.41;5116913;28;20342;-58
2022/06/29 00:50:46;;;;;;;14.35;7.47;;;;;;;16.47;78.88;101454.28;5117234;28;20027;-59
2022/06/29 00:53:16;;;;;;;8.07;5.50;;;;;;;16.41;78.37;101451.81;5116809;28;20032;-57
2022/06/29 00:55:42;;;;;;;8.70;4.65;;;;;;;16.28;79.79;101460.06;5117038;28;20418;-59
2022/06/29 00:58:10;;;;;;;7.18;4.45;;;;;;;16.30;79.58;101452.09;5116794;28;20089;-59
2022/06/29 01:00:35;;;;;;;7.20;4.68;;;;;;;16.27;79.01;101447.78;5116810;28;20038;-60
2022/06/29 01:03:01;;;;;;;6.78;4.63;;;;;;;16.18;80.65;101441.88;5116366;28;20032;-59
2022/06/29 01:05:29;;;;;;;8.05;5.15;;;;;;;16.16;79.77;101439.28;5116167;28;20130;-59
2022/06/29 01:07:54;;;;;;;13.45;8.57;;;;;;;16.08;81.17;101436.00;5116083;28;20039;-59
2022/06/29 01:10:20;;;;;;;18.08;11.55;;;;;;;16.06;80.82;101443.09;5116301;28;20434;-59
2022/06/29 01:12:52;;;;;;;16.73;9.70;;;;;;;16.11;81.15;101437.66;5116310;28;20042;-59
2022/06/29 01:15:18;;;;;;;27.42;15.88;;;;;;;16.07;80.11;101447.47;5117283;28;20064;-60
2022/06/29 01:17:44;;;;;;;42.72;25.83;;;;;;;16.05;80.90;101445.75;5116404;28;20346;-58
2022/06/29 01:20:11;;;;;;;35.38;19.73;;;;;;;16.01;81.46;101442.31;5116094;28;20039;-58
2022/06/29 01:22:37;;;;;;;35.95;23.58;;;;;;;15.99;81.61;101445.00;5115905;28;20477;-58
2022/06/29 01:25:03;;;;;;;23.73;15.88;;;;;;;15.93;82.09;101439.03;5115797;28;20067;-58
2022/06/29 01:27:28;;;;;;;13.07;8.88;;;;;;;15.94;81.40;101435.47;5116012;28;20039;-59
2022/06/29 01:29:53;;;;;;;9.50;7.55;;;;;;;15.89;82.05;101442.66;5115959;28;20044;-59
2022/06/29 01:32:19;;;;;;;20.60;13.10;;;;;;;15.83;82.67;101441.03;5115700;28;20224;-59
2022/06/29 01:34:45;;;;;;;15.82;10.18;;;;;;;15.82;82.75;101435.78;5115854;28;20390;-59
2022/06/29 01:37:11;;;;;;;12.52;8.23;;;;;;;15.81;83.41;101434.06;5115520;28;20078;-60
2022/06/29 01:39:36;;;;;;;11.00;7.93;;;;;;;15.81;83.10;101426.13;5115645;28;20070;-59
2022/06/29 01:42:02;;;;;;;9.77;6.75;;;;;;;15.71;84.02;101436.06;5115594;28;20078;-58
2022/06/29 01:44:28;;;;;;;9.13;6.57;;;;;;;15.68;83.55;101430.88;5115527;28;20024;-59
2022/06/29 01:46:53;;;;;;;6.78;5.88;;;;;;;15.74;83.36;101435.13;5115518;28;20080;-60
2022/06/29 01:49:19;;;;;;;7.53;5.70;;;;;;;15.69;83.43;101431.72;5115563;28;20078;-58
2022/06/29 01:51:44;;;;;;;9.43;5.47;;;;;;;15.69;83.13;101426.47;5115463;28;20106;-59
2022/06/29 01:54:10;;;;;;;5.57;4.72;;;;;;;15.60;83.67;101420.50;5115848;28;20036;-58
2022/06/29 01:56:36;;;;;;;8.73;5.32;;;;;;;15.56;84.16;101424.13;5115723;28;20031;-59
2022/06/29 01:59:01;;;;;;;5.00;4.50;;;;;;;15.49;84.70;101422.50;5115447;28;20067;-60
2022/06/29 02:01:26;;;;;;;7.57;4.97;;;;;;;15.46;84.59;101422.56;5115578;28;20036;-60
2022/06/29 02:03:51;;;;;;;8.27;4.90;;;;;;;15.46;84.72;101416.44;5115137;28;20038;-59
2022/06/29 02:06:18;;;;;;;8.20;5.00;;;;;;;15.46;84.36;101414.66;5115270;28;20361;-58
2022/06/29 02:08:44;;;;;;;7.75;4.90;;;;;;;15.39;84.67;101421.00;5115693;28;20422;-60
2022/06/29 02:11:09;;;;;;;5.88;4.97;;;;;;;15.30;85.28;101419.44;5115402;28;20376;-59
2022/06/29 02:13:35;;;;;;;6.10;5.50;;;;;;;15.26;84.91;101415.13;5115615;28;20072;-58
2022/06/29 02:16:00;;;;;;;8.30;5.70;;;;;;;15.16;85.28;101408.34;5115208;28;20089;-59
2022/06/29 02:18:25;;;;;;;6.20;5.60;;;;;;;15.14;85.75;101412.78;5115432;28;20027;-60
2022/06/29 02:20:51;;;;;;;9.85;5.78;;;;;;;15.09;86.34;101421.69;5114912;28;20028;-59
2022/06/29 02:23:16;;;;;;;7.43;5.65;;;;;;;15.08;85.97;101422.59;5115530;28;20055;-60
2022/06/29 02:25:41;;;;;;;9.70;6.70;;;;;;;15.04;85.67;101415.69;5115117;28;20036;-59
2022/06/29 02:28:07;;;;;;;8.38;6.43;;;;;;;15.06;86.42;101417.38;5115246;28;20039;-59
2022/06/29 02:36:00;;;;;;;8.00;6.18;;;;;;;15.10;87.00;101415.53;5115000;28;20100;-58
2022/06/29 02:38:26;;;;;;;7.05;6.35;;;;;;;15.18;86.88;101411.81;5115290;28;20032;-59
2022/06/29 02:40:51;;;;;;;7.57;6.25;;;;;;;15.21;86.83;101416.16;5115256;28;20035;-60
2022/06/29 02:43:16;;;;;;;8.18;6.43;;;;;;;15.19;86.95;101408.28;5115391;28;20028;-59
2022/06/29 02:45:43;;;;;;;8.07;6.47;;;;;;;15.25;86.79;101410.75;5119349;28;20058;-59
2022/06/29 02:48:08;;;;;;;6.97;6.00;;;;;;;15.27;87.17;101408.97;5119045;28;20375;-59
2022/06/29 02:50:34;;;;;;;8.23;5.93;;;;;;;15.28;87.20;101401.91;5118966;28;20035;-60
2022/06/29 02:52:59;;;;;;;7.63;6.25;;;;;;;15.30;86.55;101398.34;5119117;28;20232;-59
2022/06/29 02:55:25;;;;;;;7.70;6.13;;;;;;;15.33;86.26;101394.78;5119151;28;20028;-58
2022/06/29 02:57:50;;;;;;;7.57;5.93;;;;;;;15.20;87.57;101399.47;5118759;28;20111;-58
2022/06/29 03:00:16;;;;;;;7.93;6.38;;;;;;;15.21;87.23;101395.94;5112311;28;20074;-59
2022/06/29 03:02:41;;;;;;;9.27;6.70;;;;;;;15.23;87.10;101391.50;5118555;28;20055;-57
2022/06/29 03:05:07;;;;;;;9.57;6.93;;;;;;;15.23;86.90;101388.88;5118710;28;20031;-59
2022/06/29 03:07:32;;;;;;;8.07;6.70;;;;;;;15.08;87.78;101390.97;5118539;28;20027;-59
2022/06/29 03:09:57;;;;;;;7.95;7.18;;;;;;;15.07;88.23;101389.22;5118861;28;20028;-59
2022/06/29 03:12:23;;;;;;;9.07;6.90;;;;;;;15.09;88.03;101384.78;5118424;28;20080;-59
2022/06/29 03:14:48;;;;;;;9.00;7.07;;;;;;;15.12;87.08;101382.09;5118635;28;20032;-59
2022/06/29 03:17:13;;;;;;;8.10;7.30;;;;;;;15.12;87.10;101384.72;5118394;28;20055;-59
2022/06/29 03:19:39;;;;;;;9.27;7.63;;;;;;;15.08;88.13;101373.38;5118692;28;20026;-58
2022/06/29 03:22:04;;;;;;;9.32;7.07;;;;;;;15.18;87.46;101381.97;5118574;28;20479;-59
2022/06/29 03:24:29;;;;;;;10.15;7.53;;;;;;;15.10;87.19;101374.22;5118230;28;20039;-58
2022/06/29 03:26:55;;;;;;;9.00;7.07;;;;;;;15.06;87.35;101369.94;5118054;28;20058;-59
2022/06/29 03:29:20;;;;;;;9.45;7.13;;;;;;;15.02;87.94;101368.28;5118130;28;20031;-58
2022/06/29 03:31:45;;;;;;;10.25;7.85;;;;;;;15.01;88.01;101370.94;5117710;28;20389;-60
2022/06/29 03:34:10;;;;;;;8.07;7.28;;;;;;;14.98;88.17;101364.84;5118456;28;20132;-59
2022/06/29 03:36:36;;;;;;;10.68;7.60;;;;;;;15.02;88.33;101364.78;5118282;28;20111;-59
2022/06/29 03:39:01;;;;;;;9.15;7.93;;;;;;;14.96;87.64;101355.22;5118173;28;20431;-59
2022/06/29 03:41:26;;;;;;;9.48;7.90;;;;;;;14.93;88.58;101355.28;5118248;28;20057;-59
2022/06/29 03:43:52;;;;;;;10.38;7.80;;;;;;;14.98;88.38;101359.56;5118032;28;20035;-59
2022/06/29 03:46:17;;;;;;;11.07;8.13;;;;;;;14.97;87.48;101346.41;5117924;28;20419;-59
2022/06/29 03:48:42;;;;;;;8.35;7.55;;;;;;;14.93;88.13;101348.25;5117772;28;20085;-60
2022/06/29 03:51:08;;;;;;;10.13;8.20;;;;;;;14.83;88.89;101359.91;5117948;28;20031;-60
2022/06/29 03:53:33;;;;;;;10.80;8.40;;;;;;;14.90;89.17;101356.22;5118122;28;20034;-58
2022/06/29 03:55:59;;;;;;;10.40;7.90;;;;;;;14.92;89.11;101354.44;5116327;28;20427;-58
2022/06/29 03:58:24;;;;;;;11.38;7.95;;;;;;;14.94;88.62;101349.97;5118385;28;20040;-59
2022/06/29 04:00:50;;;;;;;9.73;8.65;;;;;;;14.91;89.13;101341.28;5117270;28;20096;-59
2022/06/29 04:03:15;;;;;;;9.43;8.48;;;;;;;14.95;88.74;101343.81;5117695;28;20020;-59
2022/06/29 04:05:40;;;;;;;9.48;8.32;;;;;;;14.94;89.27;101339.44;5117361;28;20347;-59
2022/06/29 04:08:05;;;;;;;11.80;8.02;;;;;;;14.98;89.01;101340.25;5117535;28;20077;-58
2022/06/29 04:10:31;;;;;;;10.60;7.97;;;;;;;15.02;88.82;101344.56;5117569;28;20027;-59
2022/06/29 04:12:56;;;;;;;9.82;8.30;;;;;;;15.01;88.77;101336.69;5117528;28;20419;-58
2022/06/29 04:15:21;;;;;;;11.77;8.55;;;;;;;15.01;88.92;101342.81;5117309;28;20050;-61
2022/06/29 04:17:46;;;;;;;11.57;8.55;;;;;;;14.98;89.84;101348.16;5117469;28;20135;-59
2022/06/29 04:21:05;;;;;;;10.68;8.50;;;;;;;14.98;89.70;101338.47;5116936;28;20116;-58
2022/06/29 04:23:02;;;;;;;10.10;8.90;;;;;;;15.03;89.31;101351.56;5117382;28;20043;-58
2022/06/29 04:25:28;;;;;;;10.07;8.90;;;;;;;14.96;89.74;101347.31;5111456;28;20061;-58
2022/06/29 04:27:53;;;;;;;9.75;8.80;;;;;;;14.92;90.35;101349.16;5096592;28;20036;-59
2022/06/29 04:30:18;;;;;;;12.18;8.85;;;;;;;14.91;90.27;101342.16;5096352;28;20124;-61
2022/06/29 04:32:44;;;;;;;12.75;9.25;;;;;;;14.90;91.06;101339.53;5096191;28;20071;-59
2022/06/29 04:35:09;;;;;;;11.85;9.07;;;;;;;14.96;90.40;101340.28;5096779;28;20105;-64
2022/06/29 04:37:34;;;;;;;11.10;9.00;;;;;;;15.02;90.69;101334.00;5096572;28;20028;-60
2022/06/29 04:40:03;;;;;;;12.38;9.30;;;;;;;15.14;89.89;101344.25;5096344;28;20423;-57
2022/06/29 04:42:28;;;;;;;10.30;8.55;;;;;;;15.25;89.56;101343.97;5096555;28;20043;-58
2022/06/29 04:44:53;;;;;;;10.80;8.63;;;;;;;15.30;89.99;101342.09;5096356;28;20027;-59
2022/06/29 04:47:19;;;;;;;12.30;8.85;;;;;;;15.37;89.61;101346.31;5096287;28;20107;-58
2022/06/29 04:49:44;;;;;;;12.75;9.00;;;;;;;15.40;89.07;101334.84;5095840;28;20055;-58
2022/06/29 04:52:09;;;;;;;10.38;8.93;;;;;;;15.45;89.72;101339.06;5096411;28;20036;-57
2022/06/29 04:54:35;;;;;;;15.10;9.32;;;;;;;15.52;89.45;101334.50;5096325;28;20444;-58
2022/06/29 04:57:00;;;;;;;13.00;10.25;;;;;;;15.60;88.34;101340.47;5096078;28;20036;-58
2022/06/29 04:59:25;;;;;;;12.15;10.48;;;;;;;15.71;87.78;101341.06;5096280;28;20422;-58
2022/06/29 05:01:50;;;;;;;13.90;10.77;;;;;;;15.78;87.30;101341.75;5096186;28;20431;-58
2022/06/29 05:04:16;;;;;;;13.20;10.60;;;;;;;15.84;86.67;101338.97;5095817;28;20069;-57
2022/06/29 05:06:41;;;;;;;12.70;11.25;;;;;;;15.89;86.35;101326.53;5094963;28;20375;-57
2022/06/29 05:09:07;;;;;;;13.02;10.85;;;;;;;15.93;85.57;101325.53;5095976;28;20066;-58
2022/06/29 05:11:32;;;;;;;13.98;11.55;;;;;;;16.00;85.25;101327.06;5095711;28;20027;-57
2022/06/29 05:13:57;;;;;;;11.73;10.57;;;;;;;16.07;85.29;101326.00;5095528;28;20028;-57
2022/06/29 05:16:23;;;;;;;11.23;10.02;;;;;;;16.16;84.51;101324.88;5096319;28;20032;-58
2022/06/29 05:18:49;;;;;;;14.00;10.73;;;;;;;16.20;84.10;101319.47;5096155;28;20042;-57
2022/06/29 05:21:15;;;;;;;13.02;10.10;;;;;;;16.29;83.98;101320.94;5095721;28;20028;-57
2022/06/29 05:23:41;;;;;;;12.55;10.40;;;;;;;16.35;83.66;101321.66;5095581;28;20031;-59
2022/06/29 05:26:06;;;;;;;12.90;10.07;;;;;;;16.41;83.75;101317.09;5095441;28;20115;-58
2022/06/29 05:28:31;;;;;;;14.13;10.00;;;;;;;16.47;83.73;101320.41;5095497;28;20027;-58
2022/06/29 05:30:57;;;;;;;14.20;9.48;;;;;;;16.54;83.24;101319.31;5095372;28;20050;-58
2022/06/29 05:33:22;;;;;;;11.68;9.07;;;;;;;16.61;83.09;101314.72;5095532;28;20036;-58
2022/06/29 05:35:47;;;;;;;10.35;9.00;;;;;;;16.66;83.20;101318.97;5095581;28;20060;-58
2022/06/29 05:38:13;;;;;;;12.20;9.00;;;;;;;16.72;82.26;101312.63;5095179;28;20344;-59
2022/06/29 05:40:38;;;;;;;11.13;8.65;;;;;;;16.79;82.24;101319.47;5094907;28;20032;-59
2022/06/29 05:43:03;;;;;;;10.45;8.60;;;;;;;16.81;81.69;101307.03;5095285;28;20032;-59
2022/06/29 05:45:29;;;;;;;12.23;8.15;;;;;;;16.91;81.54;101313.78;5095152;28;20028;-59
2022/06/29 05:47:54;;;;;;;12.00;7.75;;;;;;;16.94;81.23;101305.75;5095342;28;20336;-58
2022/06/29 05:50:24;;;;;;;10.75;8.13;;;;;;;17.02;81.10;101311.66;5095207;28;20035;-59
2022/06/29 05:52:50;;;;;;;9.63;7.20;;;;;;;17.11;80.20;101309.63;5095243;28;20115;-60
2022/06/29 05:55:16;;;;;;;13.35;6.88;;;;;;;17.18;80.48;101305.84;5095833;28;20031;-58
2022/06/29 05:57:41;;;;;;;10.40;7.15;;;;;;;17.28;78.96;101312.59;5095119;28;20041;-58
2022/06/29 06:00:08;;;;;;;8.88;6.45;;;;;;;17.48;78.51;101304.84;5094994;28;20031;-58
2022/06/29 06:02:33;;;;;;;8.23;6.38;;;;;;;18.57;73.75;101305.22;5095006;28;20040;-58
2022/06/29 06:04:58;;;;;;;8.13;5.55;;;;;;;19.44;70.37;101302.53;5095021;28;20358;-58
2022/06/29 06:07:24;;;;;;;7.65;6.20;;;;;;;19.54;68.45;101304.84;5095160;28;20462;-59
2022/06/29 06:09:49;;;;;;;7.55;5.32;;;;;;;19.33;71.64;101311.88;5094992;28;20040;-57
2022/06/29 06:12:16;;;;;;;7.15;5.82;;;;;;;19.09;71.05;101306.66;5094819;28;20032;-58
2022/06/29 06:14:42;;;;;;;11.48;5.90;;;;;;;18.91;71.75;101303.91;5095137;28;20028;-58
2022/06/29 06:17:07;;;;;;;7.63;6.40;;;;;;;18.75;72.16;101296.56;5094860;28;20034;-59
2022/06/29 06:19:32;;;;;;;9.15;6.18;;;;;;;18.63;72.26;101306.81;5097899;28;20071;-58
2022/06/29 06:21:57;;;;;;;10.15;6.70;;;;;;;18.60;72.68;101309.56;5099163;28;20350;-60
2022/06/29 06:24:23;;;;;;;8.07;6.30;;;;;;;18.55;71.71;101303.53;5099022;28;20020;-58
2022/06/29 06:26:48;;;;;;;6.47;5.72;;;;;;;18.53;71.03;101310.72;5104277;28;20269;-58
2022/06/29 06:29:13;;;;;;;8.23;5.80;;;;;;;18.54;71.40;101299.16;5117780;28;20027;-58
2022/06/29 06:31:38;;;;;;;6.65;5.68;;;;;;;18.64;70.81;101304.09;5118074;28;20471;-58
2022/06/29 06:34:04;;;;;;;8.95;5.50;;;;;;;18.66;70.56;101307.56;5106850;28;20110;-59
2022/06/29 06:36:29;;;;;;;8.35;5.13;;;;;;;18.70;71.48;101305.66;5109760;28;20061;-59
2022/06/29 06:38:55;;;;;;;8.55;5.45;;;;;;;18.71;72.73;101302.03;5107670;28;20034;-60
2022/06/29 06:41:23;;;;;;;8.10;4.70;;;;;;;18.69;70.68;101301.28;5115562;28;20027;-57
2022/06/29 06:43:50;;;;;;;7.47;4.07;;;;;;;18.74;71.36;101299.28;5119395;28;20047;-59
2022/06/29 06:46:15;;;;;;;6.65;4.30;;;;;;;18.85;68.32;101305.03;5119047;28;20028;-59
2022/06/29 06:48:42;;;;;;;5.30;3.65;;;;;;;18.91;68.44;101295.94;5100037;28;20081;-59
2022/06/29 06:51:08;;;;;;;5.32;4.10;;;;;;;19.00;68.62;101304.41;5098718;28;20119;-60
2022/06/29 06:53:33;;;;;;;7.55;3.80;;;;;;;19.05;69.24;101306.84;5098603;28;20137;-59
2022/06/29 06:55:58;;;;;;;4.32;3.17;;;;;;;19.14;65.55;101306.50;5098448;28;20553;-58
2022/06/29 06:58:23;;;;;;;6.63;3.33;;;;;;;19.33;64.65;101299.50;5098226;28;20047;-59
2022/06/29 07:00:49;;;;;;;5.85;3.35;;;;;;;19.47;64.21;101298.88;5098599;28;20115;-59
2022/06/29 07:03:14;;;;;;;5.57;3.10;;;;;;;19.52;63.31;101296.09;5098470;28;20034;-59
2022/06/29 07:05:39;;;;;;;5.35;3.00;;;;;;;19.66;62.46;101309.63;5098665;28;20128;-60
2022/06/29 07:08:05;;;;;;;6.05;3.10;;;;;;;19.73;63.12;101303.13;5098276;28;20111;-59
2022/06/29 07:10:30;;;;;;;6.45;2.80;;;;;;;19.70;61.47;101308.56;5098335;28;20111;-59
2022/06/29 07:12:55;;;;;;;5.40;2.83;;;;;;;19.79;61.88;101305.47;5098162;28;20439;-59
2022/06/29 07:15:21;;;;;;;3.20;2.90;;;;;;;19.82;60.90;101294.72;5098318;28;20078;-59
2022/06/29 07:17:46;;;;;;;5.22;2.80;;;;;;;19.98;60.91;101300.22;5098192;28;20281;-58
2022/06/29 07:20:11;;;;;;;6.60;2.72;;;;;;;20.02;61.21;101301.81;5098204;28;20024;-57
2022/06/29 07:22:36;;;;;;;5.43;2.60;;;;;;;20.09;60.12;101303.22;5097931;28;20024;-58
2022/06/29 07:25:02;;;;;;;5.93;2.50;;;;;;;20.10;59.35;101299.66;5097785;28;20040;-58
2022/06/29 07:27:28;;;;;;;3.90;2.55;;;;;;;20.13;59.00;101294.19;5098150;28;20060;-59
2022/06/29 07:29:53;;;;;;;4.38;2.28;;;;;;;20.22;59.81;101307.09;5096973;28;20477;-60
2022/06/29 07:32:19;;;;;;;3.95;2.45;;;;;;;20.41;58.37;101305.31;5098239;28;20070;-58
2022/06/29 07:34:45;;;;;;;4.35;2.47;;;;;;;20.52;57.97;101295.97;5097672;28;20427;-58
2022/06/29 07:37:10;;;;;;;5.47;2.50;;;;;;;20.63;58.84;101298.97;5097763;28;20095;-61
2022/06/29 07:39:36;;;;;;;2.97;2.28;;;;;;;20.61;56.33;101300.84;5098206;28;20076;-59
2022/06/29 07:42:01;;;;;;;3.17;2.15;;;;;;;20.63;58.37;101297.16;5097567;28;20031;-59
2022/06/29 07:44:26;;;;;;;5.03;2.45;;;;;;;20.70;58.53;101293.31;5097498;28;20035;-58
2022/06/29 07:46:52;;;;;;;4.32;1.92;;;;;;;20.75;58.39;101288.63;5097564;28;20020;-59
2022/06/29 07:49:17;;;;;;;3.63;2.28;;;;;;;20.87;57.82;101270.34;5097392;28;20080;-59
2022/06/29 07:51:42;;;;;;;4.82;2.05;;;;;;;20.98;57.48;101290.13;5097819;28;20032;-57
2022/06/29 07:54:08;;;;;;;5.27;2.60;;;;;;;21.32;56.71;101285.81;5097858;28;20370;-58
2022/06/29 07:56:36;;;;;;;3.60;2.00;;;;;;;21.40;56.25;101280.97;5117252;28;20279;-59
2022/06/29 07:59:01;;;;;;;3.90;2.10;;;;;;;21.46;54.55;101283.34;5117849;28;20261;-59
2022/06/29 08:01:27;;;;;;;4.03;1.92;;;;;;;21.49;54.09;101280.47;5117539;28;20400;-60
2022/06/29 08:03:53;;;;;;;3.20;1.95;;;;;;;21.49;54.42;101276.03;5117716;28;20027;-59
2022/06/29 08:06:18;;;;;;;4.75;2.13;;;;;;;21.48;54.73;101271.63;5110844;28;20127;-59
2022/06/29 08:08:44;;;;;;;5.03;2.00;;;;;;;21.60;54.29;101271.94;5106660;28;20478;-59
2022/06/29 08:11:09;;;;;;;7.30;1.92;;;;;;;21.65;54.96;101276.06;5105979;28;20042;-59
2022/06/29 08:13:35;;;;;;;4.40;1.52;;;;;;;21.68;55.24;101267.94;5107493;28;20066;-57
2022/06/29 08:16:00;;;;;;;4.43;2.10;;;;;;;21.72;55.59;101271.31;5105905;28;20065;-58
2022/06/29 08:18:26;;;;;;;4.78;1.95;;;;;;;21.81;55.95;101271.69;5098625;28;20036;-58
2022/06/29 08:20:51;;;;;;;4.25;1.55;;;;;;;21.85;56.23;101272.34;5097013;28;20558;-58
2022/06/29 08:23:16;;;;;;;3.42;1.85;;;;;;;21.87;54.24;101268.69;5096946;28;20031;-58
2022/06/29 08:25:41;;;;;;;6.57;2.35;;;;;;;21.93;55.96;101264.84;5096902;28;20054;-58
2022/06/29 08:28:07;;;;;;;2.95;1.80;;;;;;;21.93;54.75;101272.81;5097128;28;20057;-58
2022/06/29 08:30:32;;;;;;;4.25;1.65;;;;;;;21.97;52.30;101265.53;5096674;28;20044;-59
2022/06/29 08:32:57;;;;;;;4.65;1.90;;;;;;;22.01;52.59;101267.97;5096621;28;20321;-59
2022/06/29 08:35:23;;;;;;;3.37;1.53;;;;;;;22.00;53.54;101260.03;5096732;28;20354;-52
2022/06/29 08:37:48;;;;;;;4.38;1.98;;;;;;;22.04;53.35;101266.94;5096471;28;20294;-53
2022/06/29 08:40:15;;;;;;;7.43;1.90;;;;;;;22.09;53.43;101259.56;5096629;28;20032;-53
2022/06/29 08:42:42;;;;;;;1.70;1.52;;;;;;;22.19;51.95;101261.63;5095768;28;20031;-53
2022/06/29 08:45:09;;;;;;;10.43;2.20;;;;;;;22.34;52.25;101261.75;5096414;28;20028;-52
2022/06/29 08:47:35;;;;;;;4.00;1.80;;;;;;;22.52;51.92;101260.69;5096502;28;20043;-56
2022/06/29 08:50:05;;;;;;;2.90;1.52;;;;;;;22.67;50.57;101253.66;5096488;28;20039;-51
2022/06/29 08:52:33;;;;;;;2.80;1.42;;;;;;;22.85;49.60;101250.81;5096438;28;20039;-51
2022/06/29 08:54:58;;;;;;;4.13;1.60;;;;;;;23.08;49.27;101257.44;5096471;28;20439;-60
2022/06/29 08:57:25;;;;;;;3.28;1.50;;;;;;;23.33;48.61;101254.19;5096304;28;20105;-59
2022/06/29 08:59:52;;;;;;;2.60;1.48;;;;;;;23.70;48.06;101252.00;5096323;28;20184;-60
2022/06/29 09:02:17;;;;;;;2.35;1.65;;;;;;;24.13;46.61;101251.03;5114913;28;20172;-59
2022/06/29 09:04:42;;;;;;;3.27;1.50;;;;;;;24.35;44.95;101247.88;5116605;28;20497;-58
2022/06/29 09:07:09;;;;;;;2.97;1.40;;;;;;;24.71;44.68;101249.09;5116433;28;20300;-62
2022/06/29 09:10:16;;;;;;;2.65;1.40;;;;;;;25.42;46.12;101240.75;5116345;28;20088;-62
2022/06/29 09:12:47;;;;;;;2.78;1.20;;;;;;;26.55;42.88;101239.75;5116457;28;20048;-60
2022/06/29 09:15:12;;;;;;;3.72;1.40;;;;;;;27.12;39.96;101236.38;5116412;28;20110;-59
2022/06/29 09:17:39;;;;;;;2.13;1.33;;;;;;;27.51;37.92;101235.16;5116162;28;20156;-59
2022/06/29 09:20:06;;;;;;;2.75;1.30;;;;;;;27.84;35.87;101239.72;5116299;28;20024;-59
2022/06/29 09:22:32;;;;;;;2.47;1.30;;;;;;;28.35;35.30;101236.53;5116455;28;20102;-60
2022/06/29 09:24:57;;;;;;;3.13;1.60;;;;;;;29.10;35.35;101240.06;5115851;28;20177;-60
2022/06/29 09:27:24;;;;;;;3.05;1.40;;;;;;;29.71;33.72;101242.06;5116197;28;20031;-60
2022/06/29 09:29:49;;;;;;;2.83;1.23;;;;;;;30.06;32.06;101239.84;5116279;28;20052;-60
2022/06/29 09:32:19;;;;;;;3.03;1.20;;;;;;;30.44;32.26;101240.94;5116005;28;20040;-59
2022/06/29 09:34:51;;;;;;;2.22;1.25;;;;;;;31.16;32.76;101229.81;5109251;28;20032;-60
2022/06/29 09:37:21;;;;;;;3.10;1.48;;;;;;;30.92;30.69;101237.47;5103096;28;20035;-60
2022/06/29 09:39:51;;;;;;;2.30;1.42;;;;;;;30.30;33.03;101233.25;5099807;28;20036;-60
2022/06/29 09:42:21;;;;;;;2.67;1.50;;;;;;;29.69;33.52;101236.81;5095661;28;20032;-59
2022/06/29 09:44:48;;;;;;;1.77;1.20;;;;;;;29.04;36.83;101237.06;5095364;28;20024;-61
2022/06/29 09:47:26;;;;;;;2.10;1.17;;;;;;;28.27;35.85;101241.66;5104009;28;20028;-59
2022/06/29 09:49:53;;;;;;;2.40;1.27;;;;;;;27.85;36.30;101240.59;5110702;28;20123;-60
2022/06/29 09:52:20;;;;;;;2.22;1.30;;;;;;;27.52;36.93;101236.00;5106645;28;20103;-59
2022/06/29 09:54:54;;;;;;;2.33;1.30;;;;;;;27.12;37.08;101239.06;5102735;28;20118;-60
2022/06/29 09:57:23;;;;;;;3.05;1.27;;;;;;;27.00;37.84;101242.72;5103366;28;20025;-60
2022/06/29 10:02:46;;;;;;;3.47;1.30;;;;;;;26.63;36.58;101232.00;5109019;28;20100;-60
2022/06/29 10:05:13;;;;;;;3.22;1.20;;;;;;;26.79;36.98;101242.47;5115601;28;20035;-61
2022/06/29 10:07:41;;;;;;;3.47;1.38;;;;;;;26.61;36.90;101238.47;5110454;28;20032;-59
2022/06/29 10:10:09;;;;;;;2.60;1.30;;;;;;;26.66;37.16;101230.94;5113851;28;20327;-62
2022/06/29 10:16:35;;;;;;;2.50;1.30;;;;;;;26.85;39.04;101233.91;5095229;28;20055;-61
2022/06/29 10:19:14;;;;;;;2.40;1.38;;;;;;;26.99;38.23;101227.56;5095066;28;20032;-61
2022/06/29 10:21:39;;;;;;;3.60;1.05;;;;;;;27.17;38.37;101215.41;5099627;28;20110;-61
2022/06/29 10:24:05;;;;;;;4.18;1.20;;;;;;;27.19;37.58;101212.56;5099347;28;20106;-62
2022/06/29 10:26:35;;;;;;;5.68;1.52;;;;;;;26.95;36.73;101210.81;5102877;28;20048;-59
2022/06/29 10:29:09;;;;;;;3.50;1.20;;;;;;;26.73;38.74;101215.19;5101468;28;20485;-60
2022/06/29 10:31:59;;;;;;;2.20;1.20;;;;;;;26.46;40.40;101202.88;5104152;28;20522;-60
2022/06/29 10:34:30;;;;;;;2.22;1.45;;;;;;;26.50;38.09;101201.66;5103623;28;20092;-59
2022/06/29 10:37:13;;;;;;;4.95;1.60;;;;;;;26.90;37.84;101212.94;5102265;28;20032;-60
2022/06/29 10:39:50;;;;;;;1.92;1.20;;;;;;;27.14;37.67;101215.63;5102698;28;20054;-59
2022/06/29 10:45:14;;;;;;;3.58;1.40;;;;;;;27.02;38.18;101208.50;5103453;28;20034;-61
2022/06/29 10:47:43;;;;;;;4.57;1.45;;;;;;;26.97;39.06;101205.31;5101821;28;20034;-62
2022/06/29 10:50:15;;;;;;;2.10;1.30;;;;;;;26.88;39.83;101203.28;5102753;28;20046;-60
2022/06/29 10:52:44;;;;;;;2.17;1.40;;;;;;;26.67;37.53;101203.94;5101993;28;20422;-61
2022/06/29 10:55:10;;;;;;;2.83;1.40;;;;;;;26.46;38.36;101197.50;5102880;28;20035;-60
2022/06/29 10:57:37;;;;;;;2.42;1.30;;;;;;;26.48;40.52;101195.56;5103845;28;20085;-61
2022/06/29 11:00:08;;;;;;;1.92;1.40;;;;;;;26.47;40.56;101193.84;5101175;28;20431;-61
2022/06/29 11:02:34;;;;;;;2.08;1.30;;;;;;;26.46;39.41;101193.97;5094663;28;20440;-60
2022/06/29 11:04:59;;;;;;;3.58;1.65;;;;;;;26.45;38.42;101194.94;5096433;28;20020;-60
2022/06/29 11:12:55;;;;;;;2.63;1.38;;;;;;;26.62;38.83;101189.16;5118484;28;20070;-60
2022/06/29 11:15:40;;;;;;;2.30;1.50;;;;;;;26.62;39.31;101187.34;5118805;28;20027;-59
2022/06/29 11:18:16;;;;;;;3.22;1.35;;;;;;;26.61;38.80;101195.50;5118548;28;20032;-60
2022/06/29 11:20:44;;;;;;;2.83;1.40;;;;;;;26.64;38.72;101187.22;5118497;28;20141;-59
2022/06/29 11:23:20;;;;;;;4.13;1.67;;;;;;;26.62;37.92;101184.66;5118438;28;20023;-61
2022/06/29 11:25:49;;;;;;;2.97;1.40;;;;;;;26.57;38.51;101186.81;5118459;28;20035;-60
2022/06/29 11:28:19;;;;;;;2.83;1.40;;;;;;;26.60;38.68;101185.72;5118525;28;20032;-62
2022/06/29 11:31:01;;;;;;;4.13;1.60;;;;;;;26.86;38.72;101176.53;5117888;28;20543;-61
2022/06/29 11:33:28;;;;;;;2.33;1.50;;;;;;;27.21;39.34;101179.22;5118269;28;20385;-60
2022/06/29 11:35:55;;;;;;;3.45;1.27;;;;;;;27.60;38.24;101174.44;5118133;28;20080;-60
2022/06/29 11:38:26;;;;;;;3.33;1.60;;;;;;;27.81;36.96;101170.03;5118332;28;20074;-60
2022/06/29 11:40:54;;;;;;;2.28;1.30;;;;;;;27.83;34.85;101169.91;5118125;28;20107;-60